Terminal Aerodrome Forecast
Issued by NWS Tampa Bay Area, FL

Home | Current Version | Previous Version | Text Only | Print | Product List | Glossary On
Versions: 1 2 3 4 5 6 7 8 9 10 11 12 13 14 15 16 17 18 19 20 21 22 23
000
FTUS42 KTBW 011823 AAA
TAFFMY
TAF AMD
KFMY 011823Z 0118/0218 21007KT P6SM SCT035 SCT250
      TEMPO 0118/0121 VRB15G25KT 3SM TSRA BKN025CB
     FM012100 24008KT P6SM VCTS SCT035CB SCT100 BKN250
     FM020200 VRB03KT P6SM SCT015 SCT100 BKN250
     FM021600 17005KT P6SM VCTS SCT040CB SCT250=

USA.gov is the U.S. government's official web portal to all federal, state and local government web resources and services.